createdAt,value
2018-01-31T01:52:20.356Z,91.00
2018-01-31T01:52:56.464Z,92.10
2018-01-31T01:55:22.744Z,92.10
2018-01-31T01:57:49.009Z,92.20
2018-01-31T02:00:15.277Z,92.40
2018-01-31T02:02:41.573Z,92.70
2018-01-31T02:05:07.946Z,92.40
2018-01-31T02:07:34.259Z,92.40
2018-01-31T02:10:00.518Z,92.20
2018-01-31T02:12:26.845Z,92.20
2018-01-31T02:14:53.151Z,92.20
2018-01-31T02:17:19.436Z,92.10
2018-01-31T02:19:46.458Z,92.90
2018-01-31T02:22:12.718Z,92.30
2018-01-31T02:24:38.994Z,92.10
2018-01-31T02:27:05.326Z,92.20
2018-01-31T02:29:31.615Z,92.10
2018-01-31T02:31:57.906Z,92.10
2018-01-31T02:34:24.161Z,92.40
2018-01-31T02:36:51.182Z,92.80
2018-01-31T02:42:21.606Z,92.70
2018-01-31T02:44:48.662Z,93.00
2018-01-31T02:47:14.916Z,92.90
2018-01-31T02:49:41.173Z,92.60
2018-01-31T02:52:07.445Z,92.50
2018-01-31T02:54:33.723Z,92.40
2018-01-31T02:57:00.033Z,92.50
2018-01-31T02:59:26.330Z,92.60
2018-01-31T03:01:52.592Z,92.60
2018-01-31T03:04:18.905Z,92.60
2018-01-31T03:06:45.931Z,92.90
2018-01-31T03:09:12.214Z,92.60
2018-01-31T03:11:39.215Z,93.10
2018-01-31T03:14:05.479Z,92.70
2018-01-31T03:16:31.794Z,92.60
2018-01-31T03:18:58.056Z,92.60
2018-01-31T03:21:24.334Z,92.70
2018-01-31T03:23:50.588Z,92.50
2018-01-31T03:26:16.890Z,92.60
2018-01-31T03:28:43.160Z,92.80
2018-01-31T03:31:09.432Z,92.90
2018-01-31T03:33:35.790Z,93.00
2018-01-31T03:36:02.834Z,93.20
2018-01-31T03:38:29.105Z,92.80
2018-01-31T03:40:55.413Z,93.00
2018-01-31T03:43:21.682Z,92.90
2018-01-31T03:45:47.957Z,92.90
2018-01-31T03:48:14.206Z,93.00
2018-01-31T03:50:40.557Z,92.80
2018-01-31T03:53:06.834Z,92.70
2018-01-31T03:55:33.838Z,93.20
2018-01-31T03:58:00.121Z,93.10
2018-01-31T04:00:26.380Z,92.80
2018-01-31T04:02:53.371Z,93.20
2018-01-31T04:05:19.668Z,92.80
2018-01-31T04:07:45.933Z,92.70
2018-01-31T04:10:12.230Z,93.00
2018-01-31T04:12:38.544Z,93.00
2018-01-31T04:15:04.820Z,92.60
2018-01-31T04:17:31.110Z,92.90
2018-01-31T04:19:58.133Z,93.20
2018-01-31T04:22:25.160Z,93.20
2018-01-31T04:24:51.408Z,92.80
2018-01-31T04:27:17.676Z,92.80
2018-01-31T04:29:43.949Z,92.90
2018-01-31T04:32:10.234Z,92.80
2018-01-31T04:34:37.318Z,93.20
2018-01-31T04:37:03.590Z,92.80
2018-01-31T04:39:29.845Z,92.70
2018-01-31T04:41:56.132Z,92.60
2018-01-31T04:44:22.405Z,92.80
2018-01-31T04:46:48.685Z,92.70
2018-01-31T04:49:14.971Z,92.60
2018-01-31T04:51:41.241Z,92.50
2018-01-31T04:54:07.518Z,92.70
2018-01-31T04:56:33.821Z,92.30
2018-01-31T04:59:00.072Z,92.50
2018-01-31T05:01:26.334Z,92.50
2018-01-31T05:03:53.355Z,92.70
2018-01-31T05:06:20.381Z,92.90
2018-01-31T05:08:47.431Z,93.20
2018-01-31T05:11:13.747Z,92.70
2018-01-31T05:13:40.754Z,93.00
2018-01-31T05:16:07.087Z,92.70
2018-01-31T05:18:33.391Z,92.60
2018-01-31T05:20:59.666Z,92.90
2018-01-31T05:23:25.934Z,92.80
2018-01-31T05:25:52.947Z,93.20
2018-01-31T05:28:19.233Z,92.60
2018-01-31T05:30:45.513Z,93.10
2018-01-31T05:33:11.819Z,92.90
2018-01-31T05:35:38.829Z,93.40
2018-01-31T05:38:05.870Z,93.40
2018-01-31T05:40:32.891Z,93.30
2018-01-31T05:42:59.170Z,93.00
2018-01-31T05:45:25.446Z,92.90
2018-01-31T05:47:52.451Z,93.30
2018-01-31T05:50:18.705Z,92.70
2018-01-31T05:52:44.988Z,92.70
2018-01-31T05:55:11.978Z,93.20
2018-01-31T05:57:38.278Z,92.80
2018-01-31T06:00:04.627Z,92.80
2018-01-31T06:02:30.904Z,92.90
2018-01-31T06:04:57.186Z,92.90
2018-01-31T06:07:24.206Z,93.00
2018-01-31T06:09:50.502Z,92.70
2018-01-31T06:12:16.791Z,92.70
2018-01-31T06:14:43.046Z,92.60
2018-01-31T06:17:09.408Z,92.60
2018-01-31T06:19:35.663Z,92.70
2018-01-31T06:22:01.958Z,92.70
2018-01-31T06:24:28.218Z,92.50
2018-01-31T06:26:57.385Z,93.10
2018-01-31T06:29:24.151Z,92.80
2018-01-31T06:31:50.418Z,92.70
2018-01-31T06:34:17.099Z,92.40
2018-01-31T06:36:43.377Z,92.20
2018-01-31T06:39:10.130Z,92.20
2018-01-31T06:41:47.285Z,91.80
2018-01-31T06:44:13.548Z,91.70
2018-01-31T06:46:42.662Z,91.90
2018-01-31T06:49:09.709Z,92.20
2018-01-31T06:51:35.990Z,91.80
2018-01-31T06:54:02.339Z,91.60
2018-01-31T06:56:29.366Z,92.00
2018-01-31T06:58:55.661Z,91.20
2018-01-31T07:01:22.007Z,91.40
2018-01-31T07:03:50.654Z,91.80
2018-01-31T07:06:17.772Z,91.20
2018-01-31T07:08:48.545Z,91.20
2018-01-31T07:11:16.872Z,91.90
2018-01-31T07:13:45.328Z,91.20
2018-01-31T07:16:11.932Z,91.80
2018-01-31T07:18:38.599Z,91.90
2018-01-31T07:21:05.122Z,91.90
2018-01-31T07:23:31.421Z,91.60
2018-01-31T07:25:57.734Z,91.50
2018-01-31T07:28:24.153Z,91.50
2018-01-31T07:30:50.746Z,91.70
2018-01-31T07:33:19.039Z,91.50
2018-01-31T07:35:57.082Z,91.60
2018-01-31T07:38:24.099Z,91.90
2018-01-31T07:40:51.143Z,91.50
2018-01-31T07:43:17.447Z,91.20
2018-01-31T07:45:44.454Z,91.00
2018-01-31T07:48:11.385Z,90.90
2018-01-31T07:50:37.709Z,90.70
2018-01-31T07:53:04.021Z,90.70
2018-01-31T07:55:30.338Z,90.40
2018-01-31T07:57:56.664Z,90.10
2018-01-31T08:00:24.419Z,90.40
2018-01-31T08:02:50.714Z,89.30
2018-01-31T08:05:17.014Z,89.70
2018-01-31T08:07:45.205Z,90.10
2018-01-31T08:10:11.470Z,89.70
2018-01-31T08:12:37.756Z,89.80
2018-01-31T08:15:04.097Z,89.60
2018-01-31T08:17:30.390Z,89.00
2018-01-31T08:19:56.647Z,89.50
2018-01-31T08:22:22.967Z,89.00
2018-01-31T08:24:49.254Z,88.10
2018-01-31T08:27:15.535Z,88.90
2018-01-31T08:29:41.881Z,87.70
2018-01-31T08:32:08.715Z,87.30
2018-01-31T08:34:35.013Z,86.40
2018-01-31T08:37:01.295Z,86.10
2018-01-31T08:39:28.310Z,87.10
2018-01-31T08:41:54.610Z,86.10
2018-01-31T08:44:20.915Z,85.30
2018-01-31T08:46:47.176Z,85.30
2018-01-31T08:49:13.458Z,85.70
2018-01-31T08:51:39.730Z,85.30
2018-01-31T08:54:06.037Z,85.40
2018-01-31T08:56:33.089Z,85.20
2018-01-31T08:59:00.150Z,84.60
2018-01-31T09:01:26.433Z,84.80
2018-01-31T09:03:52.699Z,84.90
2018-01-31T09:06:18.986Z,84.40
2018-01-31T09:08:45.275Z,84.70
2018-01-31T09:11:11.542Z,84.50
2018-01-31T09:13:37.839Z,85.30
2018-01-31T09:16:04.121Z,84.70
2018-01-31T09:18:30.413Z,85.30
2018-01-31T09:20:57.426Z,85.80
2018-01-31T09:23:23.736Z,85.10
2018-01-31T09:25:50.081Z,84.70
2018-01-31T09:28:16.357Z,85.10
2018-01-31T09:30:42.656Z,85.30
2018-01-31T09:33:08.976Z,85.60
2018-01-31T09:35:35.266Z,85.90
2018-01-31T09:38:01.595Z,86.00
2018-01-31T09:40:27.870Z,85.90
2018-01-31T09:42:54.918Z,87.70
2018-01-31T09:45:21.474Z,86.50
2018-01-31T09:47:48.521Z,88.50
2018-01-31T09:50:14.849Z,87.40
2018-01-31T09:52:41.110Z,86.60
2018-01-31T09:55:07.399Z,87.40
2018-01-31T09:57:33.685Z,87.00
2018-01-31T10:00:01.180Z,86.40
2018-01-31T10:02:27.471Z,86.60
2018-01-31T10:04:54.545Z,86.70
2018-01-31T10:07:20.846Z,84.80
2018-01-31T10:09:47.135Z,85.50
2018-01-31T10:12:14.140Z,86.10
2018-01-31T10:14:40.438Z,84.90
2018-01-31T10:17:06.711Z,84.80
2018-01-31T10:19:32.988Z,84.00
2018-01-31T10:21:59.278Z,84.20
2018-01-31T10:24:25.567Z,83.40
2018-01-31T10:26:51.821Z,84.60
2018-01-31T10:29:18.106Z,83.20
2018-01-31T10:31:44.370Z,81.70
2018-01-31T10:34:10.658Z,81.70
2018-01-31T10:36:37.139Z,80.70
2018-01-31T10:39:03.477Z,80.60
2018-01-31T10:41:29.755Z,81.20
2018-01-31T10:43:56.069Z,80.00
2018-01-31T10:46:23.075Z,80.40
2018-01-31T10:48:49.370Z,79.40
2018-01-31T10:51:15.636Z,79.90
2018-01-31T10:58:35.337Z,81.60
2018-01-31T11:01:01.647Z,82.80
2018-01-31T11:03:27.914Z,81.20
2018-01-31T11:05:54.205Z,82.20
2018-01-31T11:08:20.476Z,82.40
2018-01-31T11:10:46.770Z,82.60
2018-01-31T11:13:14.170Z,81.70
2018-01-31T11:15:40.453Z,81.10
2018-01-31T11:18:06.808Z,80.50
2018-01-31T11:20:33.082Z,79.60
2018-01-31T11:22:59.519Z,79.00
2018-01-31T11:25:26.572Z,79.00
2018-01-31T11:27:52.842Z,78.80
2018-01-31T11:30:19.338Z,77.80
2018-01-31T11:32:45.679Z,77.00
2018-01-31T11:35:11.946Z,77.60
2018-01-31T11:37:38.925Z,77.90
2018-01-31T11:40:05.247Z,77.80
2018-01-31T11:42:31.521Z,77.20
2018-01-31T11:44:57.775Z,76.90
2018-01-31T11:47:24.026Z,77.20
2018-01-31T11:49:50.613Z,77.10
2018-01-31T11:52:16.886Z,76.70
2018-01-31T11:54:43.190Z,77.10
2018-01-31T11:57:09.450Z,76.20
2018-01-31T11:59:36.220Z,76.80
2018-01-31T12:02:02.568Z,76.70
2018-01-31T12:04:28.895Z,75.80
2018-01-31T12:06:55.509Z,75.80
2018-01-31T12:09:34.943Z,75.30
2018-01-31T12:12:01.446Z,75.50
2018-01-31T12:14:40.056Z,74.40
2018-01-31T12:17:10.206Z,75.50
2018-01-31T12:19:42.447Z,75.50
2018-01-31T12:22:21.027Z,75.70
2018-01-31T12:25:00.272Z,76.10
2018-01-31T12:27:38.878Z,75.50
2018-01-31T12:30:17.403Z,76.30
2018-01-31T12:32:55.950Z,75.90
2018-01-31T12:35:35.308Z,76.70
2018-01-31T12:38:13.734Z,76.60
2018-01-31T12:40:40.706Z,77.70
2018-01-31T12:43:06.766Z,76.10
2018-01-31T12:45:32.841Z,75.00
2018-01-31T12:51:11.134Z,75.70
2018-01-31T12:53:49.597Z,77.90
2018-01-31T12:56:19.765Z,77.80
2018-01-31T13:01:53.918Z,76.50
2018-01-31T13:04:33.211Z,77.90
2018-01-31T13:07:11.896Z,77.60
2018-01-31T13:09:50.426Z,77.70
2018-01-31T13:12:29.012Z,77.00
2018-01-31T13:15:09.392Z,76.40
2018-01-31T13:17:47.986Z,77.90
2018-01-31T13:23:15.950Z,78.60
2018-01-31T13:25:55.199Z,77.10
2018-01-31T13:28:40.035Z,76.90
2018-01-31T13:31:21.371Z,78.10
2018-01-31T13:33:59.906Z,78.30
2018-01-31T13:36:38.441Z,78.30
2018-01-31T13:39:17.130Z,78.30
2018-01-31T13:41:55.545Z,78.30
2018-01-31T13:44:34.144Z,77.70
2018-01-31T13:47:12.625Z,77.50
2018-01-31T13:49:51.118Z,76.90
2018-01-31T13:52:39.846Z,77.40
2018-01-31T13:55:19.130Z,77.30
2018-01-31T13:57:57.844Z,78.10
2018-01-31T14:00:36.485Z,78.40
2018-01-31T14:03:14.942Z,78.60
2018-01-31T14:05:53.518Z,79.50
2018-01-31T14:08:32.078Z,79.50
2018-01-31T14:11:10.589Z,78.00
2018-01-31T14:13:49.230Z,79.90
2018-01-31T14:16:27.552Z,79.70
2018-01-31T14:19:05.108Z,79.10
2018-01-31T14:21:43.689Z,79.70
2018-01-31T14:27:26.329Z,79.80
2018-01-31T14:30:05.545Z,80.50
2018-01-31T14:32:44.010Z,80.00
2018-01-31T14:35:22.511Z,80.40
2018-01-31T14:37:48.632Z,80.40
2018-01-31T14:40:14.888Z,80.40
2018-01-31T14:42:40.958Z,81.20
2018-01-31T14:45:07.008Z,82.20
2018-01-31T14:47:33.842Z,84.90
2018-01-31T14:49:59.899Z,84.50
2018-01-31T14:52:26.047Z,85.20
2018-01-31T14:54:52.903Z,85.90
2018-01-31T14:57:19.003Z,85.40
2018-01-31T14:59:45.787Z,87.10
2018-01-31T15:02:11.853Z,86.10
2018-01-31T15:04:37.902Z,86.60
2018-01-31T15:07:03.975Z,85.80
2018-01-31T15:09:30.065Z,86.50
2018-01-31T15:11:56.891Z,86.30
2018-01-31T15:14:22.988Z,85.40
2018-01-31T15:16:49.036Z,84.90
2018-01-31T15:19:15.228Z,85.60
2018-01-31T15:21:41.412Z,84.70
2018-01-31T15:24:07.557Z,85.40
2018-01-31T15:26:34.366Z,86.80
2018-01-31T15:29:00.414Z,86.60
2018-01-31T15:31:26.499Z,86.60
2018-01-31T15:33:53.290Z,87.40
2018-01-31T15:36:19.350Z,87.60
2018-01-31T15:38:45.471Z,88.30
2018-01-31T15:41:11.529Z,89.30
2018-01-31T15:43:37.639Z,89.90
2018-01-31T15:46:03.681Z,90.00
2018-01-31T15:48:30.475Z,90.80
2018-01-31T15:50:56.574Z,90.30
2018-01-31T15:53:22.728Z,90.70
2018-01-31T15:55:48.845Z,90.90
2018-01-31T15:58:14.922Z,90.80
2018-01-31T16:00:40.977Z,91.20
2018-01-31T16:03:07.065Z,91.00
2018-01-31T16:05:33.109Z,91.20
2018-01-31T16:07:59.179Z,91.40
2018-01-31T16:10:25.770Z,91.00
2018-01-31T16:12:52.017Z,91.10
2018-01-31T16:15:18.957Z,91.00
2018-01-31T16:17:45.274Z,90.50
2018-01-31T16:20:24.571Z,91.00
2018-01-31T16:22:50.865Z,90.60
2018-01-31T16:25:17.171Z,90.40
2018-01-31T16:27:55.747Z,90.90
2018-01-31T16:30:22.105Z,91.30
2018-01-31T16:33:00.648Z,91.20
2018-01-31T16:35:27.824Z,91.50
2018-01-31T16:37:54.159Z,91.70
2018-01-31T16:40:20.453Z,91.90
2018-01-31T16:42:46.805Z,92.20
2018-01-31T16:45:14.309Z,92.50
2018-01-31T16:47:40.582Z,91.80
2018-01-31T16:50:07.611Z,92.50
2018-01-31T16:52:34.646Z,92.30
2018-01-31T16:55:00.949Z,91.80
2018-01-31T16:57:27.244Z,92.00
2018-01-31T16:59:53.522Z,91.70
2018-01-31T17:02:19.816Z,92.10
2018-01-31T17:04:46.081Z,92.00
2018-01-31T17:07:12.415Z,92.20
2018-01-31T17:09:38.684Z,92.30
2018-01-31T17:12:04.979Z,91.90
2018-01-31T17:14:31.252Z,92.00
2018-01-31T17:16:57.526Z,92.00
2018-01-31T17:19:24.587Z,92.40
2018-01-31T17:21:50.873Z,92.10
2018-01-31T17:24:17.871Z,92.40
2018-01-31T17:26:44.191Z,92.10
2018-01-31T17:29:10.454Z,91.90
2018-01-31T17:31:36.788Z,92.00
2018-01-31T17:34:03.047Z,91.90
2018-01-31T17:36:29.310Z,91.70
2018-01-31T17:38:55.607Z,91.70
2018-01-31T17:41:21.898Z,91.70
2018-01-31T17:43:48.191Z,91.30
2018-01-31T17:46:14.454Z,91.50
2018-01-31T17:48:40.713Z,91.70
2018-01-31T17:51:07.003Z,91.20
2018-01-31T17:53:33.271Z,90.90
2018-01-31T17:56:00.302Z,92.20
2018-01-31T17:58:26.587Z,91.40
2018-01-31T18:00:52.858Z,91.30
2018-01-31T18:03:19.138Z,91.30
2018-01-31T18:05:45.446Z,91.50
2018-01-31T18:08:11.753Z,91.30
2018-01-31T18:10:38.022Z,91.20
2018-01-31T18:13:04.326Z,91.30
2018-01-31T18:15:30.642Z,91.50
2018-01-31T18:17:56.911Z,91.70
2018-01-31T18:20:23.205Z,91.30
2018-01-31T18:22:49.462Z,91.70
2018-01-31T18:25:15.750Z,91.60
2018-01-31T18:27:42.083Z,91.80
2018-01-31T18:30:08.351Z,91.70
2018-01-31T18:32:34.642Z,91.90
2018-01-31T18:35:01.652Z,92.30
2018-01-31T18:37:27.902Z,92.10
2018-01-31T18:39:54.182Z,92.10
2018-01-31T18:42:20.449Z,92.00
2018-01-31T18:44:46.787Z,92.00
2018-01-31T18:47:13.044Z,91.90
2018-01-31T18:49:40.055Z,92.50
2018-01-31T18:52:06.345Z,92.40
2018-01-31T18:54:32.601Z,92.20
2018-01-31T18:56:59.613Z,92.20
2018-01-31T18:59:25.869Z,91.90
2018-01-31T19:01:52.135Z,92.00
2018-01-31T19:04:18.421Z,91.80
2018-01-31T19:06:44.731Z,91.80
2018-01-31T19:09:11.013Z,91.80
2018-01-31T19:11:38.010Z,91.60
2018-01-31T19:14:04.315Z,91.40
2018-01-31T19:16:30.617Z,91.00
2018-01-31T19:18:57.606Z,91.10
2018-01-31T19:21:24.643Z,91.50
2018-01-31T19:23:51.637Z,91.40
2018-01-31T19:26:17.935Z,91.00
2018-01-31T19:28:44.214Z,91.10
2018-01-31T19:31:11.284Z,91.50
2018-01-31T19:33:37.580Z,91.10
2018-01-31T19:36:03.838Z,90.90
2018-01-31T19:38:30.091Z,91.20
2018-01-31T19:40:57.113Z,90.90
2018-01-31T19:43:24.123Z,90.60
2018-01-31T19:45:50.398Z,90.60
2018-01-31T19:48:16.654Z,90.80
2018-01-31T19:50:42.975Z,90.70
2018-01-31T19:53:09.307Z,90.80
2018-01-31T19:55:35.547Z,90.30
2018-01-31T19:58:01.838Z,90.20
2018-01-31T20:00:28.847Z,89.30
2018-01-31T20:02:55.133Z,89.30
2018-01-31T20:05:21.431Z,90.00
2018-01-31T20:07:47.697Z,89.60
2018-01-31T20:10:14.000Z,90.00
2018-01-31T20:12:40.288Z,90.00
2018-01-31T20:15:06.617Z,89.10
2018-01-31T20:17:32.895Z,88.50
2018-01-31T20:19:59.150Z,88.50
2018-01-31T20:22:25.432Z,88.20
2018-01-31T20:24:51.726Z,87.40
2018-01-31T20:27:17.991Z,86.80
2018-01-31T20:29:44.283Z,87.00
2018-01-31T20:32:10.566Z,87.10
2018-01-31T20:34:37.590Z,87.90
2018-01-31T20:37:04.643Z,87.30
2018-01-31T20:39:30.907Z,86.60
2018-01-31T20:41:57.166Z,86.80
2018-01-31T20:44:24.195Z,86.80
2018-01-31T20:46:51.202Z,86.60
2018-01-31T20:49:17.466Z,85.80
2018-01-31T20:51:44.502Z,86.20
2018-01-31T20:54:10.777Z,85.80
2018-01-31T20:56:37.062Z,86.30
2018-01-31T20:59:03.322Z,85.80
2018-01-31T21:01:30.511Z,86.80
2018-01-31T21:03:56.806Z,86.80
2018-01-31T21:06:23.070Z,87.20
2018-01-31T21:08:49.363Z,87.30
2018-01-31T21:11:15.629Z,86.90
2018-01-31T21:13:41.883Z,87.40
2018-01-31T21:16:08.196Z,87.20
2018-01-31T21:18:34.446Z,88.20
2018-01-31T21:21:00.736Z,87.80
2018-01-31T21:23:26.982Z,87.70
2018-01-31T21:25:53.983Z,89.30
2018-01-31T21:28:20.279Z,88.70
2018-01-31T21:30:46.566Z,89.20
2018-01-31T21:33:12.862Z,89.20
2018-01-31T21:35:39.863Z,88.70
2018-01-31T21:38:06.130Z,89.00
2018-01-31T21:40:32.442Z,89.30
2018-01-31T21:42:58.694Z,89.80
2018-01-31T21:45:24.969Z,89.40
2018-01-31T21:47:51.234Z,89.60
2018-01-31T21:50:17.546Z,89.40
2018-01-31T21:52:43.830Z,88.90
2018-01-31T21:55:10.092Z,89.20
2018-01-31T21:57:49.441Z,89.50
2018-01-31T22:00:15.698Z,88.70
2018-01-31T22:02:41.979Z,89.00
2018-01-31T22:05:08.298Z,88.20
2018-01-31T22:07:34.562Z,88.00
2018-01-31T22:10:00.870Z,87.90
2018-01-31T22:12:27.150Z,87.80
2018-01-31T22:14:54.148Z,87.60
2018-01-31T22:17:22.098Z,88.80
2018-01-31T22:19:48.386Z,87.00
2018-01-31T22:22:14.702Z,88.20
2018-01-31T22:24:40.978Z,87.20
2018-01-31T22:27:07.254Z,87.80
2018-01-31T22:29:33.542Z,87.90
2018-01-31T22:31:59.823Z,87.80
2018-01-31T22:34:26.139Z,88.80
2018-01-31T22:36:52.607Z,89.00
2018-01-31T22:39:19.800Z,89.40
2018-01-31T22:41:46.219Z,88.70
2018-01-31T22:44:12.505Z,89.00
2018-01-31T22:46:38.806Z,89.00
2018-01-31T22:49:05.475Z,88.90
2018-01-31T22:51:31.743Z,89.00
2018-01-31T22:53:58.388Z,88.30
2018-01-31T22:56:25.394Z,88.60
2018-01-31T22:58:51.771Z,88.20
2018-01-31T23:01:18.377Z,87.20
2018-01-31T23:03:44.666Z,87.70
2018-01-31T23:06:11.944Z,87.50
2018-01-31T23:08:38.232Z,87.20
2018-01-31T23:11:05.306Z,88.40
2018-01-31T23:13:31.614Z,87.80
2018-01-31T23:15:57.911Z,88.00
2018-01-31T23:18:24.381Z,88.00
2018-01-31T23:20:50.653Z,89.20
2018-01-31T23:23:16.952Z,88.40
2018-01-31T23:25:43.996Z,89.30
2018-01-31T23:28:10.270Z,88.80
2018-01-31T23:30:36.558Z,89.20
2018-01-31T23:33:03.018Z,88.70
2018-01-31T23:35:29.346Z,88.20
2018-01-31T23:37:56.370Z,88.40
2018-01-31T23:40:23.371Z,87.70
2018-01-31T23:42:49.715Z,88.10
2018-01-31T23:45:15.971Z,87.60
2018-01-31T23:47:42.307Z,88.30
2018-01-31T23:50:08.624Z,88.90
2018-01-31T23:52:34.911Z,87.50
2018-01-31T23:55:01.199Z,87.80
2018-01-31T23:57:27.521Z,87.00
2018-01-31T23:59:54.560Z,87.80
